createdAt,value
2023-01-19T00:00:53.917Z,4.13
2023-01-19T00:03:20.567Z,3.55
2023-01-19T00:05:47.328Z,3.63
2023-01-19T00:08:17.069Z,3.83
2023-01-19T00:10:46.163Z,4.07
2023-01-19T00:13:13.755Z,4.40
2023-01-19T00:15:40.355Z,3.22
2023-01-19T00:18:07.638Z,4.10
2023-01-19T00:20:35.939Z,3.13
2023-01-19T00:23:04.984Z,1.90
2023-01-19T00:25:31.675Z,2.03
2023-01-19T00:28:00.500Z,1.42
2023-01-19T00:30:29.395Z,1.88
2023-01-19T00:32:56.135Z,1.70
2023-01-19T00:35:22.729Z,1.08
2023-01-19T00:37:49.183Z,1.30
2023-01-19T00:40:15.822Z,1.35
2023-01-19T00:42:44.412Z,1.45
2023-01-19T00:45:22.517Z,1.58
2023-01-19T00:47:59.382Z,1.77
2023-01-19T00:50:30.179Z,1.73
2023-01-19T00:52:58.380Z,1.48
2023-01-19T00:55:25.152Z,1.50
2023-01-19T00:57:51.671Z,1.40
2023-01-19T01:00:22.345Z,1.45
2023-01-19T01:02:51.213Z,1.15
2023-01-19T01:05:18.994Z,1.88
2023-01-19T01:07:47.022Z,1.40
2023-01-19T01:10:17.209Z,1.52
2023-01-19T01:12:56.032Z,1.90
2023-01-19T01:15:26.488Z,1.90
2023-01-19T01:17:53.350Z,1.13
2023-01-19T01:20:27.490Z,0.80
2023-01-19T01:22:55.580Z,1.20
2023-01-19T01:25:26.417Z,1.17
2023-01-19T01:27:53.785Z,0.70
2023-01-19T01:30:20.838Z,1.13
2023-01-19T01:32:47.402Z,0.75
2023-01-19T01:35:14.076Z,0.82
2023-01-19T01:37:41.142Z,0.90
2023-01-19T01:40:09.037Z,0.70
2023-01-19T01:42:35.674Z,0.73
2023-01-19T01:45:07.539Z,0.80
2023-01-19T01:47:46.894Z,0.88
2023-01-19T01:50:24.163Z,0.60
2023-01-19T01:53:07.573Z,0.90
2023-01-19T01:55:38.353Z,0.80
2023-01-19T01:58:08.473Z,1.10
2023-01-19T02:00:53.602Z,0.80
2023-01-19T02:03:23.342Z,0.90
2023-01-19T02:05:51.423Z,0.95
2023-01-19T02:08:52.115Z,1.13
2023-01-19T02:11:37.577Z,0.80
2023-01-19T02:14:07.867Z,0.90
2023-01-19T02:16:37.525Z,0.80
2023-01-19T02:19:07.165Z,0.80
2023-01-19T02:21:46.631Z,0.90
2023-01-19T02:24:13.442Z,0.80
2023-01-19T02:26:44.235Z,0.80
2023-01-19T02:29:15.068Z,0.70
2023-01-19T02:31:41.922Z,0.63
2023-01-19T02:34:11.259Z,0.70
2023-01-19T02:36:42.991Z,0.80
2023-01-19T02:39:11.264Z,0.80
2023-01-19T02:41:46.321Z,0.88
2023-01-19T02:44:14.407Z,0.90
2023-01-19T02:46:41.786Z,0.98
2023-01-19T02:49:08.242Z,0.88
2023-01-19T02:51:35.477Z,0.90
2023-01-19T02:54:04.913Z,0.70
2023-01-19T02:56:37.251Z,0.90
2023-01-19T02:59:16.601Z,0.80
2023-01-19T03:02:21.080Z,0.95
2023-01-19T03:04:56.452Z,0.75
2023-01-19T03:07:58.164Z,1.17
2023-01-19T03:10:47.647Z,1.07
2023-01-19T03:13:33.370Z,1.05
2023-01-19T03:16:08.658Z,1.02
2023-01-19T03:18:37.558Z,0.90
2023-01-19T03:21:07.394Z,1.60
2023-01-19T03:23:37.182Z,1.20
2023-01-19T03:26:05.541Z,0.90
2023-01-19T03:28:34.422Z,1.27
2023-01-19T03:31:09.769Z,1.08
2023-01-19T03:33:40.084Z,1.77
2023-01-19T03:36:17.222Z,1.63
2023-01-19T03:38:46.134Z,1.60
2023-01-19T03:41:16.726Z,1.52
2023-01-19T03:43:44.227Z,1.58
2023-01-19T03:46:12.095Z,2.22
2023-01-19T03:48:39.941Z,1.57
2023-01-19T03:51:08.964Z,1.85
2023-01-19T03:53:35.475Z,1.63
2023-01-19T03:56:02.676Z,2.42
2023-01-19T03:58:29.316Z,2.90
2023-01-19T04:00:55.869Z,2.50
2023-01-19T04:03:22.629Z,2.50
2023-01-19T04:05:49.335Z,1.88
2023-01-19T04:08:15.843Z,2.20
2023-01-19T04:10:42.310Z,2.15
2023-01-19T04:13:08.936Z,2.07
2023-01-19T04:15:35.509Z,2.38
2023-01-19T04:18:02.111Z,2.45
2023-01-19T04:20:29.466Z,2.90
2023-01-19T04:22:59.504Z,2.20
2023-01-19T04:25:26.608Z,2.33
2023-01-19T04:27:55.047Z,2.22
2023-01-19T04:30:22.626Z,2.22
2023-01-19T04:32:49.593Z,2.70
2023-01-19T04:35:17.026Z,2.33
2023-01-19T04:37:44.925Z,2.10
2023-01-19T04:40:12.069Z,2.92
2023-01-19T04:42:38.523Z,2.17
2023-01-19T04:45:05.300Z,3.00
2023-01-19T04:47:31.794Z,2.40
2023-01-19T04:49:58.268Z,2.87
2023-01-19T04:52:24.809Z,2.08
2023-01-19T04:54:51.317Z,3.00
2023-01-19T04:57:17.833Z,2.72
2023-01-19T04:59:44.532Z,2.58
2023-01-19T05:02:11.734Z,2.00
2023-01-19T05:04:38.257Z,2.03
2023-01-19T05:07:04.750Z,2.08
2023-01-19T05:09:31.287Z,2.85
2023-01-19T05:11:57.758Z,2.30
2023-01-19T05:14:24.405Z,2.53
2023-01-19T05:16:50.887Z,2.33
2023-01-19T05:19:17.432Z,2.67
2023-01-19T05:21:43.962Z,2.58
2023-01-19T05:24:10.488Z,2.85
2023-01-19T05:26:37.512Z,2.33
2023-01-19T05:29:04.046Z,2.80
2023-01-19T05:31:30.667Z,3.30
2023-01-19T05:33:57.170Z,2.90
2023-01-19T05:36:23.623Z,2.72
2023-01-19T05:38:50.201Z,3.20
2023-01-19T05:41:17.673Z,2.65
2023-01-19T05:43:44.187Z,2.95
2023-01-19T05:46:10.742Z,2.30
2023-01-19T05:48:37.668Z,2.20
2023-01-19T05:51:05.195Z,2.07
2023-01-19T05:53:31.740Z,2.08
2023-01-19T05:56:08.472Z,2.35
2023-01-19T05:58:36.335Z,2.55
2023-01-19T06:01:05.594Z,2.30
2023-01-19T06:03:33.364Z,2.33
2023-01-19T06:06:00.399Z,2.10
2023-01-19T06:08:27.262Z,2.78
2023-01-19T06:10:53.864Z,2.65
2023-01-19T06:13:20.963Z,3.05
2023-01-19T06:15:47.571Z,2.47
2023-01-19T06:18:17.099Z,3.25
2023-01-19T06:20:43.561Z,2.38
2023-01-19T06:23:10.815Z,2.03
2023-01-19T06:25:37.383Z,2.35
2023-01-19T06:28:04.097Z,1.90
2023-01-19T06:30:33.447Z,2.80
2023-01-19T06:33:00.210Z,2.08
2023-01-19T06:35:27.347Z,2.53
2023-01-19T06:37:53.910Z,2.17
2023-01-19T06:40:20.442Z,2.47
2023-01-19T06:42:48.601Z,2.22
2023-01-19T06:45:15.155Z,1.83
2023-01-19T06:47:41.678Z,2.28
2023-01-19T06:50:08.949Z,1.70
2023-01-19T06:52:42.182Z,2.17
2023-01-19T06:55:10.951Z,2.00
2023-01-19T06:57:38.859Z,2.42
2023-01-19T07:00:08.109Z,1.77
2023-01-19T07:02:35.877Z,1.95
2023-01-19T07:05:02.498Z,2.37
2023-01-19T07:07:29.146Z,2.42
2023-01-19T07:09:55.831Z,2.05
2023-01-19T07:12:22.871Z,2.17
2023-01-19T07:14:49.666Z,2.80
2023-01-19T07:17:16.505Z,2.27
2023-01-19T07:19:43.377Z,2.22
2023-01-19T07:22:09.952Z,2.10
2023-01-19T07:24:38.034Z,2.28
2023-01-19T07:27:05.424Z,2.60
2023-01-19T07:29:31.974Z,2.10
2023-01-19T07:31:58.631Z,2.75
2023-01-19T07:34:25.174Z,2.60
2023-01-19T07:36:51.658Z,2.17
2023-01-19T07:39:18.179Z,2.47
2023-01-19T07:41:44.895Z,2.90
2023-01-19T07:44:11.768Z,2.42
2023-01-19T07:46:38.348Z,2.10
2023-01-19T07:49:05.040Z,2.03
2023-01-19T07:51:31.762Z,2.28
2023-01-19T07:53:58.507Z,2.37
2023-01-19T07:56:27.740Z,1.70
2023-01-19T07:58:54.662Z,1.98
2023-01-19T08:01:21.335Z,1.75
2023-01-19T08:03:49.047Z,1.70
2023-01-19T08:06:33.246Z,2.30
2023-01-19T08:09:01.683Z,1.88
2023-01-19T08:11:28.265Z,1.70
2023-01-19T08:13:54.757Z,2.00
2023-01-19T08:16:21.256Z,2.33
2023-01-19T08:18:47.856Z,2.50
2023-01-19T08:21:14.470Z,2.05
2023-01-19T08:23:41.176Z,1.83
2023-01-19T08:26:29.940Z,1.88
2023-01-19T08:28:58.976Z,1.85
2023-01-19T08:31:26.288Z,2.70
2023-01-19T08:33:53.392Z,3.10
2023-01-19T08:36:21.755Z,2.80
2023-01-19T08:38:48.460Z,3.20
2023-01-19T08:41:16.563Z,3.53
2023-01-19T08:43:44.629Z,3.20
2023-01-19T08:46:11.749Z,3.40
2023-01-19T08:48:39.935Z,3.67
2023-01-19T08:51:06.632Z,3.75
2023-01-19T08:53:33.280Z,3.20
2023-01-19T08:56:02.566Z,3.00
2023-01-19T08:58:29.574Z,3.33
2023-01-19T09:00:56.404Z,3.30
2023-01-19T09:03:23.184Z,3.88
2023-01-19T09:05:50.409Z,4.22
2023-01-19T09:08:17.147Z,3.73
2023-01-19T09:10:51.017Z,3.58
2023-01-19T09:13:18.956Z,4.75
2023-01-19T09:15:46.037Z,4.07
2023-01-19T09:18:18.749Z,4.10
2023-01-19T09:20:47.467Z,5.23
2023-01-19T09:23:16.162Z,4.93
2023-01-19T09:25:45.327Z,4.45
2023-01-19T09:28:14.517Z,4.38
2023-01-19T09:30:42.497Z,3.63
2023-01-19T09:33:11.805Z,4.63
2023-01-19T09:35:39.706Z,4.38
2023-01-19T09:38:10.339Z,4.28
2023-01-19T09:40:47.255Z,4.32
2023-01-19T09:43:33.617Z,3.55
2023-01-19T09:46:13.403Z,4.10
2023-01-19T09:48:45.879Z,4.07
2023-01-19T09:51:20.060Z,4.20
2023-01-19T09:54:09.195Z,4.07
2023-01-19T09:56:36.128Z,3.90
2023-01-19T09:59:17.772Z,4.40
2023-01-19T10:02:14.799Z,5.15
2023-01-19T10:04:43.904Z,4.30
2023-01-19T10:07:20.384Z,4.43
2023-01-19T10:09:47.674Z,4.43
2023-01-19T10:12:32.524Z,3.42
2023-01-19T10:15:25.608Z,4.72
2023-01-19T10:18:31.476Z,5.55
2023-01-19T10:21:15.210Z,3.97
2023-01-19T10:23:52.650Z,4.78
2023-01-19T10:26:29.711Z,5.40
2023-01-19T10:29:05.368Z,5.25
2023-01-19T10:31:33.995Z,5.82
2023-01-19T10:34:00.606Z,5.10
2023-01-19T10:36:34.404Z,5.05
2023-01-19T10:39:01.126Z,4.43
2023-01-19T10:41:50.595Z,4.53
2023-01-19T10:44:29.049Z,4.30
2023-01-19T10:46:58.813Z,4.18
2023-01-19T10:49:37.467Z,3.65
2023-01-19T10:52:06.705Z,4.05
2023-01-19T10:54:34.650Z,3.67
2023-01-19T10:57:12.925Z,4.78
2023-01-19T10:59:45.443Z,4.78
2023-01-19T11:02:18.700Z,4.75
2023-01-19T11:04:48.995Z,4.05
2023-01-19T11:07:19.771Z,4.80
2023-01-19T11:09:47.592Z,4.85
2023-01-19T11:12:23.037Z,4.70
2023-01-19T11:14:51.617Z,4.80
2023-01-19T11:17:25.382Z,4.07
2023-01-19T11:19:56.136Z,3.50
2023-01-19T11:22:27.988Z,3.95
2023-01-19T11:24:58.673Z,3.13
2023-01-19T11:27:26.180Z,4.40
2023-01-19T11:30:24.329Z,4.40
2023-01-19T11:32:51.158Z,4.03
2023-01-19T11:35:38.949Z,3.60
2023-01-19T11:38:07.785Z,4.00
2023-01-19T11:40:35.889Z,4.20
2023-01-19T11:43:02.968Z,4.60
2023-01-19T11:45:29.824Z,3.60
2023-01-19T11:47:57.141Z,3.28
2023-01-19T11:50:33.205Z,3.75
2023-01-19T11:53:20.494Z,3.25
2023-01-19T11:55:52.709Z,3.72
2023-01-19T11:58:20.518Z,3.33
2023-01-19T12:00:55.324Z,3.05
2023-01-19T12:03:59.315Z,4.03
2023-01-19T12:06:31.245Z,3.90
2023-01-19T12:09:00.030Z,3.30
2023-01-19T12:11:35.767Z,3.13
2023-01-19T12:14:02.920Z,2.70
2023-01-19T12:16:32.879Z,2.35
2023-01-19T12:19:57.890Z,2.53
2023-01-19T12:22:28.560Z,2.60
2023-01-19T12:25:12.832Z,2.63
2023-01-19T12:27:42.797Z,2.25
2023-01-19T12:30:31.957Z,1.73
2023-01-19T12:33:37.665Z,1.08
2023-01-19T12:36:10.266Z,1.33
2023-01-19T12:38:36.858Z,1.63
2023-01-19T12:41:15.226Z,1.52
2023-01-19T12:43:41.907Z,1.55
2023-01-19T12:46:27.091Z,1.15
2023-01-19T12:48:54.090Z,1.40
2023-01-19T12:51:26.908Z,1.30
2023-01-19T12:53:56.571Z,1.60
2023-01-19T12:56:35.699Z,1.00
2023-01-19T12:59:03.880Z,1.40
2023-01-19T13:01:31.188Z,1.20
2023-01-19T13:03:59.527Z,1.50
2023-01-19T13:07:05.894Z,1.30
2023-01-19T13:09:34.543Z,1.20
2023-01-19T13:12:30.388Z,1.40
2023-01-19T13:15:35.559Z,1.30
2023-01-19T13:18:02.860Z,1.10
2023-01-19T13:20:46.556Z,1.25
2023-01-19T13:23:43.683Z,1.40
2023-01-19T13:26:18.907Z,1.55
2023-01-19T13:28:49.356Z,1.05
2023-01-19T13:31:17.134Z,1.95
2023-01-19T13:33:50.588Z,2.00
2023-01-19T13:36:22.826Z,1.27
2023-01-19T13:38:51.819Z,1.52
2023-01-19T13:41:22.337Z,1.73
2023-01-19T13:43:56.510Z,2.28
2023-01-19T13:46:25.467Z,1.23
2023-01-19T13:49:02.674Z,1.25
2023-01-19T13:51:29.255Z,1.30
2023-01-19T13:53:57.734Z,1.40
2023-01-19T13:56:26.432Z,1.13
2023-01-19T13:58:59.868Z,1.50
2023-01-19T14:01:29.259Z,1.20
2023-01-19T14:03:56.458Z,1.55
2023-01-19T14:06:37.934Z,1.40
2023-01-19T14:09:16.494Z,1.23
2023-01-19T14:11:45.122Z,1.10
2023-01-19T14:14:28.333Z,1.17
2023-01-19T14:16:54.870Z,1.38
2023-01-19T14:19:21.896Z,1.58
2023-01-19T14:22:02.856Z,1.10
2023-01-19T14:24:32.143Z,1.50
2023-01-19T14:27:09.967Z,1.50
2023-01-19T14:29:38.100Z,1.98
2023-01-19T14:32:11.257Z,1.05
2023-01-19T14:34:48.831Z,1.40
2023-01-19T14:37:21.716Z,1.17
2023-01-19T14:39:55.190Z,1.00
2023-01-19T14:42:26.681Z,1.17
2023-01-19T14:44:55.249Z,0.98
2023-01-19T14:47:28.274Z,0.90
2023-01-19T14:49:57.714Z,1.50
2023-01-19T14:52:35.360Z,1.20
2023-01-19T14:55:03.958Z,1.08
2023-01-19T14:57:30.430Z,1.10
2023-01-19T14:59:56.991Z,0.90
2023-01-19T15:02:23.613Z,1.00
2023-01-19T15:04:53.901Z,1.00
2023-01-19T15:07:22.738Z,1.30
2023-01-19T15:09:49.970Z,1.50
2023-01-19T15:12:18.643Z,1.55
2023-01-19T15:14:45.926Z,1.35
2023-01-19T15:17:25.611Z,1.05
2023-01-19T15:19:55.823Z,1.50
2023-01-19T15:22:25.215Z,1.50
2023-01-19T15:24:51.769Z,1.67
2023-01-19T15:27:19.563Z,1.48
2023-01-19T15:29:46.148Z,1.20
2023-01-19T15:32:14.288Z,1.05
2023-01-19T15:34:42.042Z,1.40
2023-01-19T15:37:08.838Z,1.35
2023-01-19T15:39:35.673Z,1.23
2023-01-19T15:42:02.234Z,1.55
2023-01-19T15:44:29.814Z,1.00
2023-01-19T15:46:57.421Z,1.40
2023-01-19T15:49:23.933Z,1.75
2023-01-19T15:51:50.467Z,1.35
2023-01-19T15:54:18.456Z,2.00
2023-01-19T15:56:45.064Z,1.90
2023-01-19T15:59:11.655Z,2.55
2023-01-19T16:01:39.865Z,1.80
2023-01-19T16:04:08.046Z,1.45
2023-01-19T16:06:34.605Z,1.07
2023-01-19T16:09:01.711Z,1.08
2023-01-19T16:11:31.161Z,1.50
2023-01-19T16:13:58.441Z,1.17
2023-01-19T16:16:26.195Z,1.17
2023-01-19T16:18:52.750Z,1.20
2023-01-19T16:21:19.320Z,1.50
2023-01-19T16:23:46.077Z,1.75
2023-01-19T16:26:24.897Z,1.60
2023-01-19T16:28:51.368Z,1.48
2023-01-19T16:31:18.009Z,1.30
2023-01-19T16:33:45.206Z,1.35
2023-01-19T16:36:25.497Z,1.63
2023-01-19T16:38:53.046Z,1.25
2023-01-19T16:41:19.685Z,1.85
2023-01-19T16:43:56.786Z,11.50
2023-01-19T16:46:29.804Z,3.75
2023-01-19T16:49:02.007Z,1.88
2023-01-19T16:51:28.957Z,1.42
2023-01-19T16:53:55.498Z,2.13
2023-01-19T16:56:21.978Z,2.03
2023-01-19T16:58:48.550Z,3.03
2023-01-19T17:01:20.080Z,2.42
2023-01-19T17:03:47.440Z,2.38
2023-01-19T17:06:18.178Z,1.77
2023-01-19T17:08:44.997Z,3.10
2023-01-19T17:11:14.002Z,7.07
2023-01-19T17:13:40.576Z,13.18
2023-01-19T17:16:07.648Z,3.03
2023-01-19T17:18:35.568Z,2.67
2023-01-19T17:21:05.506Z,2.63
2023-01-19T17:23:32.504Z,2.03
2023-01-19T17:25:59.857Z,4.25
2023-01-19T17:28:26.685Z,3.45
2023-01-19T17:30:53.865Z,2.40
2023-01-19T17:33:22.343Z,2.83
2023-01-19T17:35:49.342Z,2.40
2023-01-19T17:38:16.610Z,2.55
2023-01-19T17:40:43.216Z,2.17
2023-01-19T17:43:09.747Z,2.60
2023-01-19T17:45:36.454Z,3.70
2023-01-19T17:48:05.804Z,3.28
2023-01-19T17:50:34.638Z,2.92
2023-01-19T17:53:01.663Z,2.97
2023-01-19T17:55:28.204Z,4.70
2023-01-19T17:57:54.748Z,4.90
2023-01-19T18:00:21.534Z,5.28
2023-01-19T18:02:51.967Z,5.68
2023-01-19T18:05:19.704Z,4.72
2023-01-19T18:07:47.453Z,5.28
2023-01-19T18:10:14.833Z,8.50
2023-01-19T18:12:41.944Z,7.55
2023-01-19T18:15:09.147Z,8.30
2023-01-19T18:17:35.722Z,8.50
2023-01-19T18:20:02.378Z,10.93
2023-01-19T18:22:28.899Z,8.80
2023-01-19T18:24:55.651Z,13.55
2023-01-19T18:27:22.839Z,11.27
2023-01-19T18:29:49.327Z,9.20
2023-01-19T18:32:15.905Z,10.60
2023-01-19T18:34:42.455Z,9.93
2023-01-19T18:37:08.972Z,12.95
2023-01-19T18:39:35.685Z,9.57
2023-01-19T18:42:02.268Z,13.23
2023-01-19T18:44:28.925Z,8.35
2023-01-19T18:46:56.754Z,9.30
2023-01-19T18:49:23.356Z,9.52
2023-01-19T18:51:49.876Z,7.82
2023-01-19T18:54:17.438Z,6.22
2023-01-19T18:56:44.191Z,8.68
2023-01-19T18:59:10.817Z,8.50
2023-01-19T19:01:37.575Z,9.27
2023-01-19T19:04:04.355Z,6.03
2023-01-19T19:06:30.835Z,8.23
2023-01-19T19:09:02.587Z,8.32
2023-01-19T19:11:29.213Z,7.47
2023-01-19T19:13:59.004Z,10.57
2023-01-19T19:16:26.029Z,10.38
2023-01-19T19:18:52.655Z,7.88
2023-01-19T19:21:20.815Z,8.77
2023-01-19T19:23:55.600Z,9.23
2023-01-19T19:26:23.463Z,10.63
2023-01-19T19:28:50.155Z,14.00
2023-01-19T19:31:20.905Z,31.83
2023-01-19T19:33:48.974Z,16.85
2023-01-19T19:36:15.869Z,11.80
2023-01-19T19:38:44.545Z,13.63
2023-01-19T19:41:16.556Z,15.30
2023-01-19T19:43:43.219Z,10.80
2023-01-19T19:46:12.083Z,10.25
2023-01-19T19:48:39.663Z,13.20
2023-01-19T19:51:19.510Z,13.98
2023-01-19T19:53:47.964Z,13.25
2023-01-19T19:56:16.663Z,15.57
2023-01-19T19:58:43.356Z,16.90
2023-01-19T20:01:15.058Z,13.27
2023-01-19T20:03:41.973Z,13.50
2023-01-19T20:06:10.896Z,13.20
2023-01-19T20:08:37.760Z,14.43
2023-01-19T20:11:13.203Z,10.90
2023-01-19T20:13:41.486Z,11.30
2023-01-19T20:16:10.559Z,11.88
2023-01-19T20:18:42.382Z,11.52
2023-01-19T20:21:19.621Z,11.48
2023-01-19T20:23:47.560Z,14.15
2023-01-19T20:26:17.670Z,14.73
2023-01-19T20:29:06.767Z,14.27
2023-01-19T20:31:44.577Z,10.60
2023-01-19T20:34:13.883Z,10.00
2023-01-19T20:36:41.215Z,8.65
2023-01-19T20:39:11.338Z,8.93
2023-01-19T20:41:43.443Z,10.25
2023-01-19T20:44:19.574Z,7.22
2023-01-19T20:46:46.592Z,7.97
2023-01-19T20:49:13.772Z,10.18
2023-01-19T20:51:43.477Z,10.95
2023-01-19T20:54:15.336Z,12.27
2023-01-19T20:56:41.996Z,12.48
2023-01-19T20:59:09.755Z,11.13
2023-01-19T21:01:36.755Z,7.72
2023-01-19T21:04:03.489Z,8.20
2023-01-19T21:06:30.018Z,8.20
2023-01-19T21:08:57.578Z,17.92
2023-01-19T21:11:24.469Z,17.08
2023-01-19T21:13:55.461Z,13.93
2023-01-19T21:16:26.732Z,15.85
2023-01-19T21:18:53.385Z,11.43
2023-01-19T21:21:29.940Z,12.85
2023-01-19T21:23:59.172Z,8.23
2023-01-19T21:26:25.795Z,10.88
2023-01-19T21:28:52.302Z,8.77
2023-01-19T21:31:18.980Z,11.77
2023-01-19T21:33:45.512Z,7.95
2023-01-19T21:36:12.190Z,10.80
2023-01-19T21:38:39.359Z,8.65
2023-01-19T21:41:12.514Z,9.55
2023-01-19T21:43:41.013Z,7.47
2023-01-19T21:46:18.651Z,5.82
2023-01-19T21:48:45.975Z,10.65
2023-01-19T21:51:13.358Z,6.63
2023-01-19T21:53:40.423Z,9.05
2023-01-19T21:56:08.655Z,10.17
2023-01-19T21:58:35.475Z,11.23
2023-01-19T22:01:05.195Z,8.52
2023-01-19T22:03:31.930Z,8.38
2023-01-19T22:06:04.971Z,8.27
2023-01-19T22:08:31.612Z,7.67
2023-01-19T22:11:05.035Z,8.15
2023-01-19T22:13:32.291Z,7.35
2023-01-19T22:16:03.437Z,6.57
2023-01-19T22:18:30.097Z,8.32
2023-01-19T22:21:06.327Z,6.63
2023-01-19T22:23:32.810Z,6.57
2023-01-19T22:25:59.922Z,5.90
2023-01-19T22:28:26.447Z,8.25
2023-01-19T22:30:53.100Z,7.15
2023-01-19T22:33:19.675Z,5.20
2023-01-19T22:35:46.150Z,4.88
2023-01-19T22:38:12.615Z,5.50
2023-01-19T22:40:39.324Z,6.28
2023-01-19T22:43:05.810Z,5.30
2023-01-19T22:45:32.318Z,4.87
2023-01-19T22:47:58.817Z,5.13
2023-01-19T22:50:25.265Z,3.90
2023-01-19T22:52:55.631Z,4.97
2023-01-19T22:55:22.257Z,5.35
2023-01-19T22:57:48.735Z,4.77
2023-01-19T23:00:15.635Z,5.28
2023-01-19T23:02:42.121Z,5.05
2023-01-19T23:05:08.890Z,4.70
2023-01-19T23:07:35.424Z,5.80
2023-01-19T23:10:01.954Z,4.50
2023-01-19T23:12:28.431Z,4.97
2023-01-19T23:14:54.901Z,4.13
2023-01-19T23:17:21.387Z,4.80
2023-01-19T23:19:47.882Z,5.68
2023-01-19T23:22:14.569Z,5.73
2023-01-19T23:24:41.144Z,4.75
2023-01-19T23:27:07.705Z,4.78
2023-01-19T23:29:34.366Z,5.53
2023-01-19T23:32:03.451Z,6.30
2023-01-19T23:34:29.957Z,4.23
2023-01-19T23:36:56.963Z,5.00
2023-01-19T23:39:23.626Z,4.68
2023-01-19T23:41:50.579Z,6.13
2023-01-19T23:44:17.725Z,5.55
2023-01-19T23:46:44.504Z,6.43
2023-01-19T23:49:11.887Z,6.35
2023-01-19T23:51:39.480Z,6.00
2023-01-19T23:54:06.021Z,6.65
2023-01-19T23:56:34.814Z,5.38
2023-01-19T23:59:05.940Z,6.37
